createdAt,value
2023-01-13T00:04:52.382Z,10.90
2023-01-13T00:09:59.563Z,9.50
2023-01-13T00:15:07.559Z,8.90
2023-01-13T00:25:20.892Z,10.10
2023-01-13T00:30:28.142Z,10.10
2023-01-13T00:35:35.272Z,8.90
2023-01-13T00:40:42.511Z,9.20
2023-01-13T00:45:51.736Z,7.80
2023-01-13T00:51:00.076Z,9.00
2023-01-13T00:56:09.883Z,10.20
2023-01-13T01:01:20.595Z,9.60
2023-01-13T01:06:30.734Z,12.30
2023-01-13T01:11:38.044Z,8.50
2023-01-13T01:16:45.245Z,7.40
2023-01-13T01:21:52.521Z,6.20
2023-01-13T01:26:59.779Z,8.30
2023-01-13T01:32:07.561Z,5.20
2023-01-13T01:37:14.851Z,8.70
2023-01-13T01:42:41.341Z,8.00
2023-01-13T01:47:53.482Z,4.90
2023-01-13T01:53:07.361Z,4.90
2023-01-13T01:58:17.481Z,9.50
2023-01-13T02:03:24.883Z,4.80
2023-01-13T02:08:32.374Z,4.80
2023-01-13T02:13:39.616Z,5.70
2023-01-13T02:19:01.585Z,4.50
2023-01-13T02:24:52.861Z,6.00
2023-01-13T02:30:26.792Z,6.60
2023-01-13T02:35:41.455Z,3.10
2023-01-13T02:40:57.020Z,3.90
2023-01-13T02:46:10.489Z,3.80
2023-01-13T02:51:21.952Z,5.30
2023-01-13T02:56:30.361Z,4.00
2023-01-13T03:01:37.963Z,3.30
2023-01-13T03:06:54.907Z,2.90
2023-01-13T03:12:12.073Z,3.70
2023-01-13T03:17:30.046Z,3.40
2023-01-13T03:22:42.613Z,6.00
2023-01-13T03:27:54.121Z,5.90
2023-01-13T03:33:06.668Z,6.40
2023-01-13T03:38:18.705Z,4.20
2023-01-13T03:43:49.752Z,4.60
2023-01-13T03:48:59.923Z,5.70
2023-01-13T03:54:11.343Z,5.60
2023-01-13T03:59:21.318Z,3.30
2023-01-13T04:04:33.684Z,3.50
2023-01-13T04:09:49.969Z,3.50
2023-01-13T04:15:00.237Z,3.50
2023-01-13T04:20:08.812Z,4.80
2023-01-13T04:25:16.054Z,2.90
2023-01-13T04:30:23.616Z,4.10
2023-01-13T04:35:30.821Z,4.20
2023-01-13T04:40:38.097Z,4.40
2023-01-13T04:45:45.524Z,8.80
2023-01-13T04:50:52.755Z,3.60
2023-01-13T04:55:59.928Z,5.30
2023-01-13T05:01:07.130Z,5.60
2023-01-13T05:06:14.431Z,4.10
2023-01-13T05:11:38.583Z,3.50
2023-01-13T05:17:01.462Z,5.20
2023-01-13T05:22:26.367Z,6.50
2023-01-13T05:27:34.014Z,5.40
2023-01-13T05:37:47.829Z,6.60
2023-01-13T05:48:31.576Z,5.40
2023-01-13T05:53:41.011Z,6.30
2023-01-13T05:58:48.254Z,7.60
2023-01-13T06:03:55.425Z,5.50
2023-01-13T06:09:03.953Z,4.50
2023-01-13T06:14:11.654Z,4.80
2023-01-13T06:19:18.906Z,4.40
2023-01-13T06:24:26.357Z,5.00
2023-01-13T06:29:33.739Z,7.70
2023-01-13T06:34:43.220Z,4.00
2023-01-13T06:39:51.156Z,4.70
2023-01-13T06:50:04.176Z,7.60
2023-01-13T06:55:12.236Z,6.70
2023-01-13T07:00:20.901Z,5.90
2023-01-13T07:05:28.239Z,4.70
2023-01-13T07:10:37.750Z,9.50
2023-01-13T07:15:53.433Z,7.40
2023-01-13T07:21:02.257Z,4.40
2023-01-13T07:26:10.791Z,4.90
2023-01-13T07:31:20.970Z,3.50
2023-01-13T07:36:28.288Z,5.70
2023-01-13T07:41:53.081Z,3.20
2023-01-13T07:47:01.247Z,5.90
2023-01-13T07:52:09.083Z,9.00
2023-01-13T07:57:16.173Z,5.00
2023-01-13T08:02:24.262Z,6.60
2023-01-13T08:07:32.220Z,5.60
2023-01-13T08:12:57.223Z,7.80
2023-01-13T08:18:04.659Z,4.50
2023-01-13T08:23:11.985Z,10.30
2023-01-13T08:28:19.683Z,4.50
2023-01-13T08:33:26.994Z,5.90
2023-01-13T08:38:34.572Z,7.10
2023-01-13T08:43:41.794Z,5.10
2023-01-13T08:48:49.017Z,6.80
2023-01-13T08:53:56.357Z,10.10
2023-01-13T08:59:03.600Z,7.20
2023-01-13T09:04:17.070Z,6.20
2023-01-13T09:09:27.067Z,8.50
2023-01-13T09:14:37.471Z,13.20
2023-01-13T09:19:44.708Z,6.70
2023-01-13T09:24:51.846Z,5.40
2023-01-13T09:29:59.002Z,5.00
2023-01-13T09:35:06.877Z,4.90
2023-01-13T09:45:27.333Z,5.20
2023-01-13T09:50:51.515Z,8.90
2023-01-13T09:55:59.139Z,4.70
2023-01-13T10:01:17.641Z,4.70
2023-01-13T10:06:34.641Z,3.60
2023-01-13T10:12:04.329Z,5.60
2023-01-13T10:17:20.231Z,3.90
2023-01-13T10:22:46.906Z,3.60
2023-01-13T10:27:56.926Z,9.30
2023-01-13T10:33:11.695Z,5.40
2023-01-13T10:38:21.735Z,3.50
2023-01-13T10:43:30.604Z,7.50
2023-01-13T10:48:43.776Z,4.20
2023-01-13T10:53:55.208Z,9.80
2023-01-13T10:59:18.653Z,6.80
2023-01-13T11:04:36.282Z,3.40
2023-01-13T11:09:43.861Z,4.80
2023-01-13T11:20:05.122Z,4.00
2023-01-13T11:25:17.667Z,5.50
2023-01-13T11:30:31.769Z,11.50
2023-01-13T11:35:43.323Z,10.50
2023-01-13T11:40:52.069Z,8.70
2023-01-13T11:46:02.452Z,4.10
2023-01-13T11:51:19.126Z,5.00
2023-01-13T11:56:42.878Z,8.10
2023-01-13T12:02:05.645Z,6.70
2023-01-13T12:07:22.181Z,8.90
2023-01-13T12:12:43.718Z,20.40
2023-01-13T12:18:02.637Z,6.80
2023-01-13T12:23:26.639Z,9.20
2023-01-13T12:28:44.899Z,7.60
2023-01-13T12:39:14.828Z,11.80
2023-01-13T12:44:24.683Z,6.80
2023-01-13T12:49:34.635Z,6.10
2023-01-13T12:55:17.487Z,5.70
2023-01-13T13:00:25.715Z,4.80
2023-01-13T13:06:00.851Z,7.70
2023-01-13T13:11:38.505Z,5.30
2023-01-13T13:16:53.432Z,11.10
2023-01-13T13:22:31.579Z,10.30
2023-01-13T13:27:47.321Z,7.50
2023-01-13T13:33:10.159Z,12.50
2023-01-13T13:38:49.259Z,10.20
2023-01-13T13:44:21.778Z,8.30
2023-01-13T13:49:41.616Z,7.40
2023-01-13T13:54:52.163Z,12.20
2023-01-13T14:00:01.817Z,11.10
2023-01-13T14:05:24.772Z,10.90
2023-01-13T14:10:39.401Z,10.40
2023-01-13T14:15:47.535Z,15.50
2023-01-13T14:26:13.129Z,13.50
2023-01-13T14:31:23.015Z,12.70
2023-01-13T14:36:39.802Z,10.30
2023-01-13T14:41:50.860Z,8.70
2023-01-13T14:47:01.565Z,5.90
2023-01-13T14:52:20.383Z,8.40
2023-01-13T14:57:31.517Z,8.70
2023-01-13T15:02:44.377Z,7.70
2023-01-13T15:07:54.803Z,6.70
2023-01-13T15:13:04.516Z,10.10
2023-01-13T15:18:15.194Z,12.50
2023-01-13T15:23:23.242Z,11.60
2023-01-13T15:28:33.192Z,13.00
2023-01-13T15:33:40.743Z,7.70
2023-01-13T15:38:55.437Z,8.20
2023-01-13T15:44:20.605Z,6.00
2023-01-13T15:49:35.000Z,8.20
2023-01-13T15:54:42.341Z,7.80
2023-01-13T15:59:50.051Z,7.20
2023-01-13T16:04:57.677Z,17.50
2023-01-13T16:10:05.789Z,7.10
2023-01-13T16:15:36.407Z,10.80
2023-01-13T16:20:44.005Z,11.20
2023-01-13T16:25:54.388Z,9.60
2023-01-13T16:31:17.827Z,8.10
2023-01-13T16:36:25.591Z,5.80
2023-01-13T16:41:34.764Z,9.10
2023-01-13T16:46:44.629Z,9.50
2023-01-13T16:51:51.854Z,13.40
2023-01-13T16:56:59.011Z,6.80
2023-01-13T17:02:12.919Z,11.00
2023-01-13T17:07:20.816Z,8.30
2023-01-13T17:12:28.201Z,13.20
2023-01-13T17:17:35.420Z,7.70
2023-01-13T17:22:45.605Z,19.00
2023-01-13T17:27:54.836Z,7.30
2023-01-13T17:33:02.578Z,8.40
2023-01-13T17:38:10.166Z,14.70
2023-01-13T17:43:17.486Z,6.60
2023-01-13T17:48:24.932Z,9.80
2023-01-13T17:53:32.387Z,17.10
2023-01-13T17:58:40.427Z,8.60
2023-01-13T18:03:48.255Z,10.20
2023-01-13T18:08:55.648Z,18.90
2023-01-13T18:14:02.978Z,11.20
2023-01-13T18:19:49.006Z,9.80
2023-01-13T18:25:14.806Z,10.80
2023-01-13T18:30:22.406Z,13.10
2023-01-13T18:35:30.381Z,11.80
2023-01-13T18:45:43.725Z,13.30
2023-01-13T18:50:51.177Z,10.80
2023-01-13T18:55:58.528Z,15.00
2023-01-13T19:01:06.976Z,8.40
2023-01-13T19:06:14.998Z,9.40
2023-01-13T19:11:23.715Z,8.20
2023-01-13T19:16:31.037Z,8.00
2023-01-13T19:21:38.354Z,7.40
2023-01-13T19:26:48.865Z,7.30
2023-01-13T19:31:56.117Z,10.40
2023-01-13T19:37:04.030Z,8.80
2023-01-13T19:42:32.282Z,11.50
2023-01-13T19:47:40.838Z,12.40
2023-01-13T19:52:48.179Z,19.60
2023-01-13T19:57:55.443Z,17.00
2023-01-13T20:03:08.277Z,18.80
2023-01-13T20:08:15.810Z,23.10
2023-01-13T20:13:25.258Z,40.40
2023-01-13T20:18:36.699Z,21.00
2023-01-13T20:23:46.290Z,23.20
2023-01-13T20:28:53.953Z,19.20
2023-01-13T20:34:01.710Z,25.60
2023-01-13T20:39:14.426Z,19.00
2023-01-13T20:44:21.902Z,42.40
2023-01-13T20:49:30.587Z,15.70
2023-01-13T20:54:38.215Z,18.90
2023-01-13T20:59:45.507Z,23.20
2023-01-13T21:04:53.039Z,20.30
2023-01-13T21:10:00.372Z,23.40
2023-01-13T21:15:22.230Z,16.70
2023-01-13T21:20:34.065Z,14.80
2023-01-13T21:25:41.498Z,22.60
2023-01-13T21:30:50.348Z,19.20
2023-01-13T21:35:57.731Z,17.20
2023-01-13T21:41:07.924Z,12.70
2023-01-13T21:46:30.234Z,16.10
2023-01-13T21:51:37.921Z,20.20
2023-01-13T21:56:45.153Z,18.60
2023-01-13T22:02:12.382Z,14.00
2023-01-13T22:07:20.274Z,22.20
2023-01-13T22:12:28.111Z,11.60
2023-01-13T22:17:35.907Z,12.00
2023-01-13T22:22:43.682Z,15.30
2023-01-13T22:27:50.807Z,14.00
2023-01-13T22:32:58.079Z,14.70
2023-01-13T22:38:05.373Z,34.00
2023-01-13T22:43:12.606Z,9.80
2023-01-13T22:48:19.795Z,13.10
2023-01-13T22:53:27.073Z,18.10
2023-01-13T22:58:34.503Z,17.70
2023-01-13T23:03:42.104Z,13.80
2023-01-13T23:08:49.725Z,14.30
2023-01-13T23:14:00.801Z,16.10
2023-01-13T23:19:09.233Z,16.30
2023-01-13T23:24:16.385Z,11.80
2023-01-13T23:29:26.332Z,11.20
2023-01-13T23:34:33.735Z,13.20
2023-01-13T23:39:40.883Z,15.90
2023-01-13T23:44:48.455Z,10.80
2023-01-13T23:49:55.598Z,11.20
2023-01-13T23:55:02.845Z,17.90
